sensor_id;sensor_type;location;lat;lon;timestamp;temperature;humidity
43671;DHT22;29267;50.906;7.248;2023-03-30T00:01:18;11.00;99.90
43671;DHT22;29267;50.906;7.248;2023-03-30T00:03:45;11.00;99.90
43671;DHT22;29267;50.906;7.248;2023-03-30T00:06:12;11.00;99.90
43671;DHT22;29267;50.906;7.248;2023-03-30T00:08:45;11.10;99.90
43671;DHT22;29267;50.906;7.248;2023-03-30T00:11:12;11.10;99.90
43671;DHT22;29267;50.906;7.248;2023-03-30T00:13:40;11.10;99.90
43671;DHT22;29267;50.906;7.248;2023-03-30T00:16:08;11.10;99.90
43671;DHT22;29267;50.906;7.248;2023-03-30T00:18:35;11.10;99.90
43671;DHT22;29267;50.906;7.248;2023-03-30T00:21:02;11.10;99.90
43671;DHT22;29267;50.906;7.248;2023-03-30T00:23:29;11.10;99.90
43671;DHT22;29267;50.906;7.248;2023-03-30T00:25:55;11.10;99.90
43671;DHT22;29267;50.906;7.248;2023-03-30T00:28:21;11.10;99.90
43671;DHT22;29267;50.906;7.248;2023-03-30T00:30:48;11.10;99.90
43671;DHT22;29267;50.906;7.248;2023-03-30T00:33:14;11.00;99.90
43671;DHT22;29267;50.906;7.248;2023-03-30T00:35:40;11.00;99.90
43671;DHT22;29267;50.906;7.248;2023-03-30T00:38:05;11.00;99.90
43671;DHT22;29267;50.906;7.248;2023-03-30T00:40:32;11.10;99.90
43671;DHT22;29267;50.906;7.248;2023-03-30T00:43:04;11.10;99.90
43671;DHT22;29267;50.906;7.248;2023-03-30T00:45:31;11.10;99.90
43671;DHT22;29267;50.906;7.248;2023-03-30T00:48:02;11.00;99.90
43671;DHT22;29267;50.906;7.248;2023-03-30T00:51:03;11.00;99.90
43671;DHT22;29267;50.906;7.248;2023-03-30T00:53:37;11.00;99.90
43671;DHT22;29267;50.906;7.248;2023-03-30T00:56:05;11.00;99.90
43671;DHT22;29267;50.906;7.248;2023-03-30T00:58:32;11.00;99.90
43671;DHT22;29267;50.906;7.248;2023-03-30T01:01:00;11.10;99.90
43671;DHT22;29267;50.906;7.248;2023-03-30T01:03:36;11.20;99.90
43671;DHT22;29267;50.906;7.248;2023-03-30T01:06:05;11.30;99.90
43671;DHT22;29267;50.906;7.248;2023-03-30T01:08:32;11.30;99.90
43671;DHT22;29267;50.906;7.248;2023-03-30T01:11:02;11.30;99.90
43671;DHT22;29267;50.906;7.248;2023-03-30T01:13:31;11.40;99.90
43671;DHT22;29267;50.906;7.248;2023-03-30T01:19:34;11.60;99.90
43671;DHT22;29267;50.906;7.248;2023-03-30T01:25:26;11.70;99.90
43671;DHT22;29267;50.906;7.248;2023-03-30T01:28:03;11.80;99.90
43671;DHT22;29267;50.906;7.248;2023-03-30T01:30:44;11.90;99.90
43671;DHT22;29267;50.906;7.248;2023-03-30T01:33:50;12.00;99.90
43671;DHT22;29267;50.906;7.248;2023-03-30T01:36:31;12.20;99.90
43671;DHT22;29267;50.906;7.248;2023-03-30T01:39:37;12.30;99.90
43671;DHT22;29267;50.906;7.248;2023-03-30T01:42:16;12.40;99.90
43671;DHT22;29267;50.906;7.248;2023-03-30T01:47:37;12.50;99.90
43671;DHT22;29267;50.906;7.248;2023-03-30T01:50:16;12.50;99.90
43671;DHT22;29267;50.906;7.248;2023-03-30T01:52:57;12.60;99.90
43671;DHT22;29267;50.906;7.248;2023-03-30T01:55:42;12.60;99.90
43671;DHT22;29267;50.906;7.248;2023-03-30T02:00:38;12.60;99.90
43671;DHT22;29267;50.906;7.248;2023-03-30T02:03:33;12.60;99.90
43671;DHT22;29267;50.906;7.248;2023-03-30T02:06:52;12.70;99.90
43671;DHT22;29267;50.906;7.248;2023-03-30T02:09:04;12.60;99.90
43671;DHT22;29267;50.906;7.248;2023-03-30T02:11:32;12.60;99.90
43671;DHT22;29267;50.906;7.248;2023-03-30T02:14:00;12.60;99.90
43671;DHT22;29267;50.906;7.248;2023-03-30T02:16:48;12.70;99.90
43671;DHT22;29267;50.906;7.248;2023-03-30T02:19:14;12.70;99.90
43671;DHT22;29267;50.906;7.248;2023-03-30T02:21:41;12.80;99.90
43671;DHT22;29267;50.906;7.248;2023-03-30T02:24:12;12.80;99.90
43671;DHT22;29267;50.906;7.248;2023-03-30T02:26:48;12.80;99.90
43671;DHT22;29267;50.906;7.248;2023-03-30T02:29:15;12.80;99.90
43671;DHT22;29267;50.906;7.248;2023-03-30T02:31:46;12.90;99.90
43671;DHT22;29267;50.906;7.248;2023-03-30T02:56:55;12.80;99.90
43671;DHT22;29267;50.906;7.248;2023-03-30T02:59:29;12.80;99.90
43671;DHT22;29267;50.906;7.248;2023-03-30T03:02:13;12.70;99.90
43671;DHT22;29267;50.906;7.248;2023-03-30T03:04:42;12.70;99.90
43671;DHT22;29267;50.906;7.248;2023-03-30T03:07:11;12.60;99.90
43671;DHT22;29267;50.906;7.248;2023-03-30T03:09:37;12.60;99.90
43671;DHT22;29267;50.906;7.248;2023-03-30T03:12:03;12.60;99.90
43671;DHT22;29267;50.906;7.248;2023-03-30T03:14:29;12.60;99.90
43671;DHT22;29267;50.906;7.248;2023-03-30T03:16:55;12.60;99.90
43671;DHT22;29267;50.906;7.248;2023-03-30T03:19:20;12.60;99.90
43671;DHT22;29267;50.906;7.248;2023-03-30T03:21:47;12.70;99.90
43671;DHT22;29267;50.906;7.248;2023-03-30T03:24:13;12.70;99.90
43671;DHT22;29267;50.906;7.248;2023-03-30T03:26:42;12.70;99.90
43671;DHT22;29267;50.906;7.248;2023-03-30T03:29:08;12.80;99.90
43671;DHT22;29267;50.906;7.248;2023-03-30T03:31:34;12.80;99.90
43671;DHT22;29267;50.906;7.248;2023-03-30T03:34:00;12.80;99.90
43671;DHT22;29267;50.906;7.248;2023-03-30T03:36:26;12.90;99.90
43671;DHT22;29267;50.906;7.248;2023-03-30T03:38:51;12.80;99.90
43671;DHT22;29267;50.906;7.248;2023-03-30T03:41:17;12.80;99.90
43671;DHT22;29267;50.906;7.248;2023-03-30T03:43:43;12.80;99.90
43671;DHT22;29267;50.906;7.248;2023-03-30T03:46:08;12.80;99.90
43671;DHT22;29267;50.906;7.248;2023-03-30T03:48:34;12.90;99.90
43671;DHT22;29267;50.906;7.248;2023-03-30T03:51:00;12.90;99.90
43671;DHT22;29267;50.906;7.248;2023-03-30T03:53:26;12.90;99.90
43671;DHT22;29267;50.906;7.248;2023-03-30T03:55:53;13.00;99.90
43671;DHT22;29267;50.906;7.248;2023-03-30T03:58:19;12.90;99.90
43671;DHT22;29267;50.906;7.248;2023-03-30T04:00:45;12.80;99.90
43671;DHT22;29267;50.906;7.248;2023-03-30T04:03:11;12.80;99.90
43671;DHT22;29267;50.906;7.248;2023-03-30T04:05:38;12.80;99.90
43671;DHT22;29267;50.906;7.248;2023-03-30T04:08:04;12.90;99.90
43671;DHT22;29267;50.906;7.248;2023-03-30T04:10:30;12.80;99.90
43671;DHT22;29267;50.906;7.248;2023-03-30T04:12:56;12.80;99.90
43671;DHT22;29267;50.906;7.248;2023-03-30T04:15:23;12.70;99.90
43671;DHT22;29267;50.906;7.248;2023-03-30T04:17:48;12.70;99.90
43671;DHT22;29267;50.906;7.248;2023-03-30T04:20:16;12.70;99.90
43671;DHT22;29267;50.906;7.248;2023-03-30T04:22:42;12.70;99.90
43671;DHT22;29267;50.906;7.248;2023-03-30T04:25:11;12.70;99.90
43671;DHT22;29267;50.906;7.248;2023-03-30T04:27:40;12.70;99.90
43671;DHT22;29267;50.906;7.248;2023-03-30T04:30:08;12.70;99.90
43671;DHT22;29267;50.906;7.248;2023-03-30T04:32:34;12.80;99.90
43671;DHT22;29267;50.906;7.248;2023-03-30T04:35:04;12.80;99.90
43671;DHT22;29267;50.906;7.248;2023-03-30T04:37:31;12.80;99.90
43671;DHT22;29267;50.906;7.248;2023-03-30T04:40:00;12.80;99.90
43671;DHT22;29267;50.906;7.248;2023-03-30T04:42:28;12.90;99.90
43671;DHT22;29267;50.906;7.248;2023-03-30T04:45:02;12.90;99.90
43671;DHT22;29267;50.906;7.248;2023-03-30T04:47:28;13.00;99.90
43671;DHT22;29267;50.906;7.248;2023-03-30T04:49:54;13.00;99.90
43671;DHT22;29267;50.906;7.248;2023-03-30T04:52:19;13.00;99.90
43671;DHT22;29267;50.906;7.248;2023-03-30T04:54:45;13.10;99.90
43671;DHT22;29267;50.906;7.248;2023-03-30T04:57:11;13.10;99.90
43671;DHT22;29267;50.906;7.248;2023-03-30T04:59:40;13.10;99.90
43671;DHT22;29267;50.906;7.248;2023-03-30T05:02:07;13.10;99.90
43671;DHT22;29267;50.906;7.248;2023-03-30T05:04:33;13.20;99.90
43671;DHT22;29267;50.906;7.248;2023-03-30T05:06:59;13.10;99.90
43671;DHT22;29267;50.906;7.248;2023-03-30T05:09:26;13.10;99.90
43671;DHT22;29267;50.906;7.248;2023-03-30T05:11:51;13.10;99.90
43671;DHT22;29267;50.906;7.248;2023-03-30T05:14:17;13.10;99.90
43671;DHT22;29267;50.906;7.248;2023-03-30T05:16:43;13.10;99.90
43671;DHT22;29267;50.906;7.248;2023-03-30T05:19:08;13.10;99.90
43671;DHT22;29267;50.906;7.248;2023-03-30T05:21:34;13.00;99.90
43671;DHT22;29267;50.906;7.248;2023-03-30T05:24:00;13.00;99.90
43671;DHT22;29267;50.906;7.248;2023-03-30T05:26:25;13.10;99.90
43671;DHT22;29267;50.906;7.248;2023-03-30T05:28:52;13.10;99.90
43671;DHT22;29267;50.906;7.248;2023-03-30T05:31:18;13.10;99.90
43671;DHT22;29267;50.906;7.248;2023-03-30T05:33:44;13.10;99.90
43671;DHT22;29267;50.906;7.248;2023-03-30T05:36:11;13.10;99.90
43671;DHT22;29267;50.906;7.248;2023-03-30T05:38:36;13.10;99.90
43671;DHT22;29267;50.906;7.248;2023-03-30T05:41:02;13.10;99.90
43671;DHT22;29267;50.906;7.248;2023-03-30T05:43:32;13.10;99.90
43671;DHT22;29267;50.906;7.248;2023-03-30T05:45:58;13.10;99.90
43671;DHT22;29267;50.906;7.248;2023-03-30T05:48:24;13.00;99.90
43671;DHT22;29267;50.906;7.248;2023-03-30T05:50:49;13.00;99.90
43671;DHT22;29267;50.906;7.248;2023-03-30T05:53:16;13.00;99.90
43671;DHT22;29267;50.906;7.248;2023-03-30T05:55:45;13.00;99.90
43671;DHT22;29267;50.906;7.248;2023-03-30T05:58:12;13.00;99.90
43671;DHT22;29267;50.906;7.248;2023-03-30T06:00:38;13.00;99.90
43671;DHT22;29267;50.906;7.248;2023-03-30T06:03:06;13.00;99.90
43671;DHT22;29267;50.906;7.248;2023-03-30T06:05:34;13.10;99.90
43671;DHT22;29267;50.906;7.248;2023-03-30T06:07:59;13.10;99.90
43671;DHT22;29267;50.906;7.248;2023-03-30T06:10:25;13.10;99.90
43671;DHT22;29267;50.906;7.248;2023-03-30T06:12:52;13.00;99.90
43671;DHT22;29267;50.906;7.248;2023-03-30T06:15:17;13.00;99.90
43671;DHT22;29267;50.906;7.248;2023-03-30T06:17:43;13.00;99.90
43671;DHT22;29267;50.906;7.248;2023-03-30T06:20:09;13.00;99.90
43671;DHT22;29267;50.906;7.248;2023-03-30T06:22:39;13.00;99.90
43671;DHT22;29267;50.906;7.248;2023-03-30T06:25:09;13.00;99.90
43671;DHT22;29267;50.906;7.248;2023-03-30T06:27:35;13.10;99.90
43671;DHT22;29267;50.906;7.248;2023-03-30T06:30:02;13.10;99.90
43671;DHT22;29267;50.906;7.248;2023-03-30T06:32:28;13.10;99.90
43671;DHT22;29267;50.906;7.248;2023-03-30T06:34:53;13.10;99.90
43671;DHT22;29267;50.906;7.248;2023-03-30T06:37:19;13.20;99.90
43671;DHT22;29267;50.906;7.248;2023-03-30T06:39:45;13.20;99.90
43671;DHT22;29267;50.906;7.248;2023-03-30T06:42:11;13.20;99.90
43671;DHT22;29267;50.906;7.248;2023-03-30T06:44:36;13.20;99.90
43671;DHT22;29267;50.906;7.248;2023-03-30T06:47:02;13.20;99.90
43671;DHT22;29267;50.906;7.248;2023-03-30T06:49:30;13.20;99.90
43671;DHT22;29267;50.906;7.248;2023-03-30T06:51:56;13.20;99.90
43671;DHT22;29267;50.906;7.248;2023-03-30T06:54:22;13.20;99.90
43671;DHT22;29267;50.906;7.248;2023-03-30T06:56:49;13.30;99.90
43671;DHT22;29267;50.906;7.248;2023-03-30T06:59:15;13.30;99.90
43671;DHT22;29267;50.906;7.248;2023-03-30T07:01:41;13.40;99.90
43671;DHT22;29267;50.906;7.248;2023-03-30T07:04:07;13.40;99.90
43671;DHT22;29267;50.906;7.248;2023-03-30T07:06:33;13.40;99.90
43671;DHT22;29267;50.906;7.248;2023-03-30T07:08:59;13.40;99.90
43671;DHT22;29267;50.906;7.248;2023-03-30T07:11:25;13.50;99.90
43671;DHT22;29267;50.906;7.248;2023-03-30T07:13:50;13.60;99.90
43671;DHT22;29267;50.906;7.248;2023-03-30T07:16:16;13.60;99.90
43671;DHT22;29267;50.906;7.248;2023-03-30T07:18:42;13.60;99.90
43671;DHT22;29267;50.906;7.248;2023-03-30T07:21:07;13.70;99.90
43671;DHT22;29267;50.906;7.248;2023-03-30T07:23:33;13.70;99.90
43671;DHT22;29267;50.906;7.248;2023-03-30T07:26:00;13.70;99.90
43671;DHT22;29267;50.906;7.248;2023-03-30T07:28:25;13.80;99.90
43671;DHT22;29267;50.906;7.248;2023-03-30T07:30:51;13.80;99.90
43671;DHT22;29267;50.906;7.248;2023-03-30T07:33:17;13.80;99.90
43671;DHT22;29267;50.906;7.248;2023-03-30T07:35:44;13.90;99.90
43671;DHT22;29267;50.906;7.248;2023-03-30T07:38:11;14.10;99.90
43671;DHT22;29267;50.906;7.248;2023-03-30T07:40:37;14.30;99.90
43671;DHT22;29267;50.906;7.248;2023-03-30T07:43:03;14.50;99.90
43671;DHT22;29267;50.906;7.248;2023-03-30T07:45:28;14.90;99.90
43671;DHT22;29267;50.906;7.248;2023-03-30T07:47:54;15.30;99.90
43671;DHT22;29267;50.906;7.248;2023-03-30T07:50:19;15.50;99.90
43671;DHT22;29267;50.906;7.248;2023-03-30T07:52:45;16.00;99.90
43671;DHT22;29267;50.906;7.248;2023-03-30T07:55:11;16.40;99.90
43671;DHT22;29267;50.906;7.248;2023-03-30T07:57:37;16.50;99.90
43671;DHT22;29267;50.906;7.248;2023-03-30T08:00:03;16.50;99.90
43671;DHT22;29267;50.906;7.248;2023-03-30T08:02:35;16.60;99.90
43671;DHT22;29267;50.906;7.248;2023-03-30T08:05:01;16.50;99.90
43671;DHT22;29267;50.906;7.248;2023-03-30T08:07:26;16.30;99.90
43671;DHT22;29267;50.906;7.248;2023-03-30T08:09:53;16.10;99.90
43671;DHT22;29267;50.906;7.248;2023-03-30T08:12:19;16.00;99.90
43671;DHT22;29267;50.906;7.248;2023-03-30T08:14:44;15.90;99.90
43671;DHT22;29267;50.906;7.248;2023-03-30T08:17:10;15.90;99.90
43671;DHT22;29267;50.906;7.248;2023-03-30T08:19:36;16.10;99.90
43671;DHT22;29267;50.906;7.248;2023-03-30T08:22:02;16.00;99.90
43671;DHT22;29267;50.906;7.248;2023-03-30T08:24:28;15.80;99.90
43671;DHT22;29267;50.906;7.248;2023-03-30T08:26:54;15.70;99.90
43671;DHT22;29267;50.906;7.248;2023-03-30T08:29:19;15.40;99.90
43671;DHT22;29267;50.906;7.248;2023-03-30T08:31:45;15.20;99.90
43671;DHT22;29267;50.906;7.248;2023-03-30T08:34:11;15.10;99.90
43671;DHT22;29267;50.906;7.248;2023-03-30T08:36:37;15.10;99.90
43671;DHT22;29267;50.906;7.248;2023-03-30T08:39:03;15.10;99.90
43671;DHT22;29267;50.906;7.248;2023-03-30T08:46:53;15.10;99.90
43671;DHT22;29267;50.906;7.248;2023-03-30T08:49:19;15.00;99.90
43671;DHT22;29267;50.906;7.248;2023-03-30T08:51:48;15.00;99.90
43671;DHT22;29267;50.906;7.248;2023-03-30T08:54:16;14.90;99.90
43671;DHT22;29267;50.906;7.248;2023-03-30T09:02:01;15.10;99.90
43671;DHT22;29267;50.906;7.248;2023-03-30T09:07:13;15.30;99.90
43671;DHT22;29267;50.906;7.248;2023-03-30T09:09:43;15.40;99.90
43671;DHT22;29267;50.906;7.248;2023-03-30T09:15:17;15.50;99.90
43671;DHT22;29267;50.906;7.248;2023-03-30T09:17:51;15.60;99.90
43671;DHT22;29267;50.906;7.248;2023-03-30T09:20:22;16.10;99.90
43671;DHT22;29267;50.906;7.248;2023-03-30T09:22:49;16.50;99.90
43671;DHT22;29267;50.906;7.248;2023-03-30T09:25:51;16.80;99.90
43671;DHT22;29267;50.906;7.248;2023-03-30T09:28:31;17.00;99.90
43671;DHT22;29267;50.906;7.248;2023-03-30T09:31:19;17.00;99.90
43671;DHT22;29267;50.906;7.248;2023-03-30T09:34:13;16.70;99.90
43671;DHT22;29267;50.906;7.248;2023-03-30T09:37:03;16.70;99.90
43671;DHT22;29267;50.906;7.248;2023-03-30T09:39:30;16.50;99.90
43671;DHT22;29267;50.906;7.248;2023-03-30T09:47:37;16.20;99.90
43671;DHT22;29267;50.906;7.248;2023-03-30T09:50:15;16.20;99.90
43671;DHT22;29267;50.906;7.248;2023-03-30T09:53:02;16.30;99.90
43671;DHT22;29267;50.906;7.248;2023-03-30T09:55:31;16.50;99.90
43671;DHT22;29267;50.906;7.248;2023-03-30T10:00:35;15.80;99.90
43671;DHT22;29267;50.906;7.248;2023-03-30T10:03:04;15.00;99.90
43671;DHT22;29267;50.906;7.248;2023-03-30T10:05:32;13.40;99.90
43671;DHT22;29267;50.906;7.248;2023-03-30T10:08:17;12.60;99.90
43671;DHT22;29267;50.906;7.248;2023-03-30T10:10:44;11.80;99.90
43671;DHT22;29267;50.906;7.248;2023-03-30T10:13:14;11.40;99.90
43671;DHT22;29267;50.906;7.248;2023-03-30T10:15:43;11.20;99.90
43671;DHT22;29267;50.906;7.248;2023-03-30T10:18:27;10.80;99.90
43671;DHT22;29267;50.906;7.248;2023-03-30T10:21:02;10.70;99.90
43671;DHT22;29267;50.906;7.248;2023-03-30T10:23:36;10.70;99.90
43671;DHT22;29267;50.906;7.248;2023-03-30T10:26:06;10.60;99.90
43671;DHT22;29267;50.906;7.248;2023-03-30T10:28:32;10.60;99.90
43671;DHT22;29267;50.906;7.248;2023-03-30T10:31:04;10.70;99.90
43671;DHT22;29267;50.906;7.248;2023-03-30T10:33:37;10.90;99.90
43671;DHT22;29267;50.906;7.248;2023-03-30T10:36:05;11.20;99.90
43671;DHT22;29267;50.906;7.248;2023-03-30T10:38:32;11.60;99.90
43671;DHT22;29267;50.906;7.248;2023-03-30T10:41:21;11.80;99.90
43671;DHT22;29267;50.906;7.248;2023-03-30T10:43:47;11.70;99.90
43671;DHT22;29267;50.906;7.248;2023-03-30T10:46:17;11.50;99.90
43671;DHT22;29267;50.906;7.248;2023-03-30T10:49:01;11.50;99.90
43671;DHT22;29267;50.906;7.248;2023-03-30T10:52:12;11.40;99.90
43671;DHT22;29267;50.906;7.248;2023-03-30T10:54:30;11.40;99.90
43671;DHT22;29267;50.906;7.248;2023-03-30T10:57:06;11.60;99.90
43671;DHT22;29267;50.906;7.248;2023-03-30T11:04:43;12.60;99.90
43671;DHT22;29267;50.906;7.248;2023-03-30T11:10:01;13.60;99.90
43671;DHT22;29267;50.906;7.248;2023-03-30T11:12:31;14.00;99.90
43671;DHT22;29267;50.906;7.248;2023-03-30T11:15:02;14.40;99.90
43671;DHT22;29267;50.906;7.248;2023-03-30T11:17:37;14.50;99.90
43671;DHT22;29267;50.906;7.248;2023-03-30T11:26:03;14.00;99.90
43671;DHT22;29267;50.906;7.248;2023-03-30T11:36:48;13.40;99.90
43671;DHT22;29267;50.906;7.248;2023-03-30T11:39:22;13.60;99.90
43671;DHT22;29267;50.906;7.248;2023-03-30T11:41:57;13.50;99.90
43671;DHT22;29267;50.906;7.248;2023-03-30T11:44:24;13.50;99.90
43671;DHT22;29267;50.906;7.248;2023-03-30T11:52:20;13.40;99.90
43671;DHT22;29267;50.906;7.248;2023-03-30T11:57:48;13.80;99.90
43671;DHT22;29267;50.906;7.248;2023-03-30T12:00:38;13.80;99.90
43671;DHT22;29267;50.906;7.248;2023-03-30T12:13:57;14.20;99.90
43671;DHT22;29267;50.906;7.248;2023-03-30T12:16:32;14.10;99.90
43671;DHT22;29267;50.906;7.248;2023-03-30T12:19:29;14.30;99.90
43671;DHT22;29267;50.906;7.248;2023-03-30T12:24:42;14.40;99.90
43671;DHT22;29267;50.906;7.248;2023-03-30T12:27:12;14.50;99.90
43671;DHT22;29267;50.906;7.248;2023-03-30T12:29:45;14.60;99.90
43671;DHT22;29267;50.906;7.248;2023-03-30T12:32:22;14.80;99.90
43671;DHT22;29267;50.906;7.248;2023-03-30T12:34:49;14.70;99.90
43671;DHT22;29267;50.906;7.248;2023-03-30T12:37:34;14.80;99.90
43671;DHT22;29267;50.906;7.248;2023-03-30T12:42:38;15.30;99.90
43671;DHT22;29267;50.906;7.248;2023-03-30T12:51:12;15.00;99.90
43671;DHT22;29267;50.906;7.248;2023-03-30T12:56:49;15.10;99.90
43671;DHT22;29267;50.906;7.248;2023-03-30T13:04:37;14.80;99.90
43671;DHT22;29267;50.906;7.248;2023-03-30T13:07:22;14.90;99.90
43671;DHT22;29267;50.906;7.248;2023-03-30T13:15:34;15.40;99.90
43671;DHT22;29267;50.906;7.248;2023-03-30T13:20:35;15.60;99.90
43671;DHT22;29267;50.906;7.248;2023-03-30T13:30:53;15.00;99.90
43671;DHT22;29267;50.906;7.248;2023-03-30T13:33:21;14.90;99.90
43671;DHT22;29267;50.906;7.248;2023-03-30T13:36:06;14.60;99.90
43671;DHT22;29267;50.906;7.248;2023-03-30T13:38:53;14.30;99.90
43671;DHT22;29267;50.906;7.248;2023-03-30T13:41:54;14.10;99.90
43671;DHT22;29267;50.906;7.248;2023-03-30T13:44:38;13.50;99.90
43671;DHT22;29267;50.906;7.248;2023-03-30T13:50:09;12.90;99.90
43671;DHT22;29267;50.906;7.248;2023-03-30T13:52:44;12.70;99.90
43671;DHT22;29267;50.906;7.248;2023-03-30T13:55:18;12.60;99.90
43671;DHT22;29267;50.906;7.248;2023-03-30T13:57:46;12.40;99.90
43671;DHT22;29267;50.906;7.248;2023-03-30T14:00:37;12.40;99.90
43671;DHT22;29267;50.906;7.248;2023-03-30T14:08:40;11.70;99.90
43671;DHT22;29267;50.906;7.248;2023-03-30T14:11:19;11.50;99.90
43671;DHT22;29267;50.906;7.248;2023-03-30T14:13:48;11.50;99.90
43671;DHT22;29267;50.906;7.248;2023-03-30T14:16:31;11.50;99.90
43671;DHT22;29267;50.906;7.248;2023-03-30T14:19:41;12.00;99.90
43671;DHT22;29267;50.906;7.248;2023-03-30T14:22:15;12.40;99.90
43671;DHT22;29267;50.906;7.248;2023-03-30T14:24:59;12.70;99.90
43671;DHT22;29267;50.906;7.248;2023-03-30T14:27:32;12.70;99.90
43671;DHT22;29267;50.906;7.248;2023-03-30T14:29:57;12.70;99.90
43671;DHT22;29267;50.906;7.248;2023-03-30T14:32:23;12.80;99.90
43671;DHT22;29267;50.906;7.248;2023-03-30T14:34:52;12.90;99.90
43671;DHT22;29267;50.906;7.248;2023-03-30T14:37:19;13.00;99.90
43671;DHT22;29267;50.906;7.248;2023-03-30T14:39:50;12.90;99.90
43671;DHT22;29267;50.906;7.248;2023-03-30T14:42:35;12.90;99.90
43671;DHT22;29267;50.906;7.248;2023-03-30T14:45:01;13.00;99.90
43671;DHT22;29267;50.906;7.248;2023-03-30T14:47:27;13.00;99.90
43671;DHT22;29267;50.906;7.248;2023-03-30T14:49:55;13.00;99.90
43671;DHT22;29267;50.906;7.248;2023-03-30T14:52:24;13.10;99.90
43671;DHT22;29267;50.906;7.248;2023-03-30T14:54:52;13.20;99.90
43671;DHT22;29267;50.906;7.248;2023-03-30T14:57:21;13.30;99.90
43671;DHT22;29267;50.906;7.248;2023-03-30T14:59:50;13.40;99.90
43671;DHT22;29267;50.906;7.248;2023-03-30T15:02:19;13.50;99.90
43671;DHT22;29267;50.906;7.248;2023-03-30T15:04:45;13.50;99.90
43671;DHT22;29267;50.906;7.248;2023-03-30T15:07:14;13.60;99.90
43671;DHT22;29267;50.906;7.248;2023-03-30T15:09:41;13.60;99.90
43671;DHT22;29267;50.906;7.248;2023-03-30T15:12:19;13.70;99.90
43671;DHT22;29267;50.906;7.248;2023-03-30T15:14:46;13.70;99.90
43671;DHT22;29267;50.906;7.248;2023-03-30T15:17:17;13.60;99.90
43671;DHT22;29267;50.906;7.248;2023-03-30T15:19:44;13.60;99.90
43671;DHT22;29267;50.906;7.248;2023-03-30T15:22:22;13.70;99.90
43671;DHT22;29267;50.906;7.248;2023-03-30T15:24:49;13.60;99.90
43671;DHT22;29267;50.906;7.248;2023-03-30T15:27:15;13.70;99.90
43671;DHT22;29267;50.906;7.248;2023-03-30T15:29:41;13.70;99.90
43671;DHT22;29267;50.906;7.248;2023-03-30T15:34:35;13.70;99.90
43671;DHT22;29267;50.906;7.248;2023-03-30T15:37:01;13.80;99.90
43671;DHT22;29267;50.906;7.248;2023-03-30T15:39:29;13.80;99.90
43671;DHT22;29267;50.906;7.248;2023-03-30T15:42:05;13.80;99.90
43671;DHT22;29267;50.906;7.248;2023-03-30T15:44:37;13.80;99.90
43671;DHT22;29267;50.906;7.248;2023-03-30T15:47:05;13.80;99.90
43671;DHT22;29267;50.906;7.248;2023-03-30T15:49:41;13.90;99.90
43671;DHT22;29267;50.906;7.248;2023-03-30T15:52:12;14.10;99.90
43671;DHT22;29267;50.906;7.248;2023-03-30T15:54:48;14.30;99.90
43671;DHT22;29267;50.906;7.248;2023-03-30T15:57:22;14.50;99.90
43671;DHT22;29267;50.906;7.248;2023-03-30T15:59:58;14.50;99.90
43671;DHT22;29267;50.906;7.248;2023-03-30T16:02:38;14.50;99.90
43671;DHT22;29267;50.906;7.248;2023-03-30T16:05:07;14.40;99.90
43671;DHT22;29267;50.906;7.248;2023-03-30T16:07:36;14.30;99.90
43671;DHT22;29267;50.906;7.248;2023-03-30T16:10:11;14.30;99.90
43671;DHT22;29267;50.906;7.248;2023-03-30T16:12:40;14.50;99.90
43671;DHT22;29267;50.906;7.248;2023-03-30T16:15:15;14.60;99.90
43671;DHT22;29267;50.906;7.248;2023-03-30T16:17:41;14.60;99.90
43671;DHT22;29267;50.906;7.248;2023-03-30T16:22:39;14.50;99.90
43671;DHT22;29267;50.906;7.248;2023-03-30T16:25:05;14.50;99.90
43671;DHT22;29267;50.906;7.248;2023-03-30T16:27:30;14.50;99.90
43671;DHT22;29267;50.906;7.248;2023-03-30T16:29:56;14.50;99.90
43671;DHT22;29267;50.906;7.248;2023-03-30T16:32:22;14.50;99.90
43671;DHT22;29267;50.906;7.248;2023-03-30T16:34:47;14.50;99.90
43671;DHT22;29267;50.906;7.248;2023-03-30T16:37:13;14.50;99.90
43671;DHT22;29267;50.906;7.248;2023-03-30T16:39:39;14.40;99.90
43671;DHT22;29267;50.906;7.248;2023-03-30T16:42:05;14.40;99.90
43671;DHT22;29267;50.906;7.248;2023-03-30T16:44:30;14.40;99.90
43671;DHT22;29267;50.906;7.248;2023-03-30T16:46:56;14.30;99.90
43671;DHT22;29267;50.906;7.248;2023-03-30T16:49:24;14.20;99.90
43671;DHT22;29267;50.906;7.248;2023-03-30T16:51:50;14.20;99.90
43671;DHT22;29267;50.906;7.248;2023-03-30T16:54:17;14.10;99.90
43671;DHT22;29267;50.906;7.248;2023-03-30T16:56:43;14.10;99.90
43671;DHT22;29267;50.906;7.248;2023-03-30T16:59:21;13.90;99.90
43671;DHT22;29267;50.906;7.248;2023-03-30T17:01:47;13.90;99.90
43671;DHT22;29267;50.906;7.248;2023-03-30T17:04:13;13.80;99.90
43671;DHT22;29267;50.906;7.248;2023-03-30T17:06:39;13.80;99.90
43671;DHT22;29267;50.906;7.248;2023-03-30T17:09:05;13.80;99.90
43671;DHT22;29267;50.906;7.248;2023-03-30T17:11:33;13.80;99.90
43671;DHT22;29267;50.906;7.248;2023-03-30T17:13:59;13.70;99.90
43671;DHT22;29267;50.906;7.248;2023-03-30T17:16:24;13.60;99.90
43671;DHT22;29267;50.906;7.248;2023-03-30T17:18:53;13.50;99.90
43671;DHT22;29267;50.906;7.248;2023-03-30T17:21:18;13.30;99.90
43671;DHT22;29267;50.906;7.248;2023-03-30T17:23:44;13.20;99.90
43671;DHT22;29267;50.906;7.248;2023-03-30T17:26:11;13.00;99.90
43671;DHT22;29267;50.906;7.248;2023-03-30T17:28:38;13.00;99.90
43671;DHT22;29267;50.906;7.248;2023-03-30T17:31:09;12.90;99.90
43671;DHT22;29267;50.906;7.248;2023-03-30T17:33:36;12.90;99.90
43671;DHT22;29267;50.906;7.248;2023-03-30T17:36:11;12.90;99.90
43671;DHT22;29267;50.906;7.248;2023-03-30T17:38:38;12.90;99.90
43671;DHT22;29267;50.906;7.248;2023-03-30T17:41:05;12.90;99.90
43671;DHT22;29267;50.906;7.248;2023-03-30T17:43:31;12.90;99.90
43671;DHT22;29267;50.906;7.248;2023-03-30T17:45:57;12.90;99.90
43671;DHT22;29267;50.906;7.248;2023-03-30T17:48:23;12.90;99.90
43671;DHT22;29267;50.906;7.248;2023-03-30T17:50:49;12.80;99.90
43671;DHT22;29267;50.906;7.248;2023-03-30T17:53:19;12.70;99.90
43671;DHT22;29267;50.906;7.248;2023-03-30T17:55:51;12.60;99.90
43671;DHT22;29267;50.906;7.248;2023-03-30T17:58:29;12.60;99.90
43671;DHT22;29267;50.906;7.248;2023-03-30T18:00:58;12.50;99.90
43671;DHT22;29267;50.906;7.248;2023-03-30T18:03:24;12.50;99.90
43671;DHT22;29267;50.906;7.248;2023-03-30T18:05:54;12.50;99.90
43671;DHT22;29267;50.906;7.248;2023-03-30T18:08:21;12.50;99.90
43671;DHT22;29267;50.906;7.248;2023-03-30T18:10:58;12.50;99.90
43671;DHT22;29267;50.906;7.248;2023-03-30T18:13:26;12.40;99.90
43671;DHT22;29267;50.906;7.248;2023-03-30T18:15:54;12.40;99.90
43671;DHT22;29267;50.906;7.248;2023-03-30T18:18:22;12.40;99.90